CES5241 ZPLJ-ZPLJ
Flight info
| Callsign | CES5241 |
|---|---|
| Flight time | 0h 14m |
| Altitude | 18700 |
| Route | RV/20 |
| Aircraft | A320/M-SDE2E3FGHIRWXY/LB1 |
Departure
| Time | 2026-04-15 13:43 |
|---|---|
| Airport | Lijiang Sanyi International Airport (ZPLJ) |
Arrival
| Time | 2026-04-15 13:57 |
|---|---|
| Airport | Lijiang Sanyi International Airport (ZPLJ) |
| Time | Latitude | Longitude | Altitude | Speed | Heading |
|---|---|---|---|---|---|
| 2026-04-15 13:39 | 26.15138 | 100.47774 | 14632 ft | 335 kts | 81° |
| 2026-04-15 13:39 | 26.15893 | 100.50139 | 14660 ft | 318 kts | 54° |
| 2026-04-15 13:39 | 26.17323 | 100.51909 | 14617 ft | 302 kts | 31° |
| 2026-04-15 13:40 | 26.19107 | 100.52947 | 14488 ft | 288 kts | 8° |
| 2026-04-15 13:40 | 26.21059 | 100.53274 | 14517 ft | 282 kts | 356° |
| 2026-04-15 13:40 | 26.23018 | 100.53388 | 14588 ft | 281 kts | 356° |
| 2026-04-15 13:40 | 26.24944 | 100.53460 | 14702 ft | 276 kts | 353° |
| 2026-04-15 13:41 | 26.26872 | 100.53464 | 14693 ft | 277 kts | 353° |
| 2026-04-15 13:41 | 26.28799 | 100.53450 | 14720 ft | 276 kts | 353° |
| 2026-04-15 13:41 | 26.30717 | 100.53449 | 14714 ft | 275 kts | 353° |
| 2026-04-15 13:41 | 26.32622 | 100.53451 | 14727 ft | 270 kts | 353° |
| 2026-04-15 13:42 | 26.34493 | 100.53456 | 14754 ft | 269 kts | 353° |
| 2026-04-15 13:42 | 26.36366 | 100.53473 | 14723 ft | 270 kts | 353° |
| 2026-04-15 13:42 | 26.38218 | 100.53477 | 14741 ft | 268 kts | 352° |
| 2026-04-15 13:42 | 26.40077 | 100.53465 | 14738 ft | 266 kts | 353° |
| 2026-04-15 13:43 | 26.41926 | 100.53471 | 14775 ft | 265 kts | 353° |
| 2026-04-15 13:43 | 26.43775 | 100.53479 | 14759 ft | 266 kts | 353° |
| 2026-04-15 13:43 | 26.45626 | 100.53466 | 14752 ft | 267 kts | 353° |
| 2026-04-15 13:43 | 26.47493 | 100.53451 | 14714 ft | 269 kts | 352° |
| 2026-04-15 13:44 | 26.49366 | 100.53436 | 14700 ft | 270 kts | 353° |
| 2026-04-15 13:44 | 26.51245 | 100.53461 | 14695 ft | 270 kts | 354° |
| 2026-04-15 13:44 | 26.53121 | 100.53474 | 14706 ft | 269 kts | 352° |
| 2026-04-15 13:44 | 26.54958 | 100.53461 | 14718 ft | 267 kts | 353° |
| 2026-04-15 13:45 | 26.56800 | 100.53463 | 14733 ft | 264 kts | 353° |
| 2026-04-15 13:45 | 26.58640 | 100.53459 | 14703 ft | 265 kts | 352° |
| 2026-04-15 13:45 | 26.60492 | 100.53434 | 14706 ft | 267 kts | 352° |
| 2026-04-15 13:47 | 26.73455 | 100.53233 | 13860 ft | 267 kts | 353° |
| 2026-04-15 13:47 | 26.75310 | 100.53234 | 13744 ft | 267 kts | 354° |
| 2026-04-15 13:47 | 26.77150 | 100.53238 | 13744 ft | 260 kts | 353° |
| 2026-04-15 13:48 | 26.78947 | 100.53230 | 13734 ft | 256 kts | 353° |
| 2026-04-15 13:48 | 26.80719 | 100.53220 | 13736 ft | 254 kts | 353° |
| 2026-04-15 13:48 | 26.82492 | 100.53220 | 13786 ft | 257 kts | 353° |
| 2026-04-15 13:48 | 26.84303 | 100.53220 | 13715 ft | 264 kts | 353° |
| 2026-04-15 13:49 | 26.86135 | 100.53198 | 13736 ft | 267 kts | 353° |
| 2026-04-15 13:49 | 26.87983 | 100.53146 | 13769 ft | 265 kts | 352° |
| 2026-04-15 13:49 | 26.89826 | 100.53078 | 13769 ft | 266 kts | 353° |
| 2026-04-15 13:49 | 26.91677 | 100.52998 | 13754 ft | 265 kts | 346° |
| 2026-04-15 13:50 | 26.93359 | 100.52353 | 13784 ft | 250 kts | 321° |
| 2026-04-15 13:50 | 26.94455 | 100.50949 | 13830 ft | 236 kts | 291° |
| 2026-04-15 13:50 | 26.94909 | 100.49193 | 13863 ft | 237 kts | 282° |
| 2026-04-15 13:50 | 26.95308 | 100.47364 | 13801 ft | 246 kts | 283° |
| 2026-04-15 13:51 | 26.95723 | 100.45505 | 13764 ft | 252 kts | 283° |
| 2026-04-15 13:51 | 26.96139 | 100.43599 | 13686 ft | 252 kts | 283° |
| 2026-04-15 13:51 | 26.96560 | 100.41706 | 13742 ft | 250 kts | 282° |
| 2026-04-15 13:51 | 26.96928 | 100.39792 | 13725 ft | 253 kts | 276° |
| 2026-04-15 13:52 | 26.96741 | 100.37856 | 13751 ft | 252 kts | 249° |
| 2026-04-15 13:52 | 26.95758 | 100.36222 | 13755 ft | 259 kts | 229° |
| 2026-04-15 13:52 | 26.94470 | 100.34793 | 13730 ft | 262 kts | 227° |
| 2026-04-15 13:52 | 26.93119 | 100.33405 | 13690 ft | 266 kts | 223° |
| 2026-04-15 13:53 | 26.91521 | 100.32257 | 13479 ft | 281 kts | 203° |
| 2026-04-15 13:53 | 26.89589 | 100.31845 | 13217 ft | 282 kts | 193° |
| 2026-04-15 13:53 | 26.87714 | 100.31419 | 12668 ft | 273 kts | 201° |
| 2026-04-15 13:53 | 26.85949 | 100.30732 | 12006 ft | 265 kts | 203° |
| 2026-04-15 13:54 | 26.84201 | 100.30088 | 11209 ft | 265 kts | 201° |
| 2026-04-15 13:54 | 26.82445 | 100.29530 | 10648 ft | 258 kts | 198° |
| 2026-04-15 13:54 | 26.80733 | 100.29012 | 9959 ft | 254 kts | 201° |
| 2026-04-15 13:54 | 26.79089 | 100.28387 | 9733 ft | 234 kts | 203° |
| 2026-04-15 13:55 | 26.77617 | 100.27845 | 9699 ft | 218 kts | 201° |
| 2026-04-15 13:55 | 26.76219 | 100.27376 | 9519 ft | 201 kts | 200° |
| 2026-04-15 13:55 | 26.74876 | 100.26927 | 9120 ft | 206 kts | 199° |
| 2026-04-15 13:55 | 26.73553 | 100.26476 | 8798 ft | 193 kts | 199° |
| 2026-04-15 13:56 | 26.72272 | 100.26046 | 8165 ft | 189 kts | 200° |
| 2026-04-15 13:56 | 26.71070 | 100.25633 | 7796 ft | 173 kts | 200° |
| 2026-04-15 13:56 | 26.69964 | 100.25247 | 7470 ft | 161 kts | 200° |
| 2026-04-15 13:56 | 26.68924 | 100.24895 | 7274 ft | 153 kts | 200° |
| 2026-04-15 13:57 | 26.68039 | 100.24586 | 7249 ft | 100 kts | 197° |
| 2026-04-15 13:57 | 26.67594 | 100.24431 | 7248 ft | 39 kts | 199° |
| 2026-04-15 13:57 | 26.67415 | 100.24380 | 7248 ft | 9 kts | 182° |
| 2026-04-15 13:57 | 26.67369 | 100.24420 | 7249 ft | 9 kts | 114° |
| 2026-04-15 13:58 | 26.67353 | 100.24472 | 7249 ft | 6 kts | 107° |
| 2026-04-15 13:58 | 26.67343 | 100.24507 | 7249 ft | 0 kts | 107° |
| 2026-04-15 13:58 | 26.67338 | 100.24524 | 7251 ft | 6 kts | 107° |
| 2026-04-15 13:59 | 26.67320 | 100.24588 | 7250 ft | 8 kts | 107° |
| 2026-04-15 13:59 | 26.67313 | 100.24614 | 7249 ft | 0 kts | 107° |
| 2026-04-15 14:01 | 26.67314 | 100.24614 | 7249 ft | 0 kts | 107° |
| 2026-04-15 14:04 | 26.67314 | 100.24613 | 7243 ft | 0 kts | 107° |